Puerto Banus, Marbella

>

This is an optional block (switch it off / on) in the settings - file ($SITE['banners'] = false;)

You can display ads, any other important text or photo’s using text / html or PHP code.

You can place one or more at the top and or bottom and it can all be different for content / size .



Meteosat more information blitzortung!


Radar lluvias  rain snow radar


Visita nuestra red de sitios de meteo:

Documentation for the template used

MeteoibericaRed estaciones Meteorologicas

MeteoclimaticRed estaciones Meteorologicas



Sin Advertencias climatologicas .En este momento tenemos Nivel Verde.    No hay Alarmas

Pagina Historial Weather Underground texto

Diario Resumen Diciembre 3, 2017 Unidades:  Métrico    impérial   Tanto
« Anterior Dia
Siguiente Dia »
Diario Semana Mensual Anual Personalizada
  Maxima: Minima: Media:
Temperatura: 14.1 °C 9.5 °C 12.1 °C
Punto de rocío: 8.7 °C -7.1 °C 1.5 °C
Humedad: 74 % 26 % 51 %
Velocidad del Viento: 48.1 km/h 0.0 km/h 22.4 km/h
Ráfagas de viento: 48.1 km/h - -
Viento:- - ESE
Pression baro: 1029.3 hPa 1021.6 hPa -
Précipitaciones: 0.0 mm    
Historical Graphs
 
 
Datos de tabla para Diciembre 3, 2017
Tiempo Temperatura Punto de rocío Pression baro Viento Velocidad del Viento Ráfagas de viento Humedad Las precipitaciones Rate ( Hora )
00:09 11.8 °C -1.7 °C 1022.9 hPa North 18.5 km/h 18.5 km/h 39 % 0.0 mm
00:14 11.8 °C -1.7 °C 1022.9 hPa NNW 18.5 km/h 18.5 km/h 39 % 0.0 mm
00:19 11.9 °C -1.6 °C 1022.9 hPa NNE 14.8 km/h 14.8 km/h 39 % 0.0 mm
00:34 11.8 °C -1.7 °C 1022.9 hPa NE 16.7 km/h 16.7 km/h 39 % 0.0 mm
00:39 11.8 °C -1.1 °C 1022.9 hPa NE 12.9 km/h 12.9 km/h 41 % 0.0 mm
00:44 11.7 °C -1.4 °C 1022.9 hPa NNE 13.0 km/h 13.0 km/h 40 % 0.0 mm
00:49 11.6 °C -1.6 °C 1022.9 hPa NNE 22.2 km/h 22.2 km/h 40 % 0.0 mm
00:59 11.6 °C -1.6 °C 1022.6 hPa NNE 24.1 km/h 24.1 km/h 40 % 0.0 mm
01:04 11.6 °C -1.6 °C 1022.6 hPa NNE 31.5 km/h 31.5 km/h 40 % 0.0 mm
01:09 11.6 °C -1.9 °C 1022.2 hPa North 25.9 km/h 25.9 km/h 39 % 0.0 mm
01:14 11.6 °C -1.6 °C 1022.2 hPa North 22.5 km/h 22.5 km/h 40 % 0.0 mm
01:24 11.5 °C -1.7 °C 1022.2 hPa NNW 22.2 km/h 22.2 km/h 40 % 0.0 mm
01:34 11.7 °C -1.8 °C 1022.2 hPa NNE 37.0 km/h 37.0 km/h 39 % 0.0 mm
01:54 11.7 °C -1.8 °C 1022.2 hPa NNW 27.8 km/h 27.8 km/h 39 % 0.0 mm
01:59 11.8 °C -2.1 °C 1022.2 hPa NNE 27.8 km/h 27.8 km/h 38 % 0.0 mm
02:04 11.8 °C -2.1 °C 1021.9 hPa North 27.8 km/h 27.8 km/h 38 % 0.0 mm
02:19 12.0 °C -1.9 °C 1021.9 hPa WNW 20.4 km/h 20.4 km/h 38 % 0.0 mm
02:29 11.9 °C -2.7 °C 1021.9 hPa NNW 27.8 km/h 27.8 km/h 36 % 0.0 mm
02:39 12.1 °C -2.6 °C 1021.9 hPa NNW 40.7 km/h 40.7 km/h 36 % 0.0 mm
02:44 12.0 °C -2.3 °C 1021.9 hPa North 22.2 km/h 22.2 km/h 37 % 0.0 mm
02:49 12.1 °C -2.6 °C 1021.9 hPa NNE 14.5 km/h 14.5 km/h 36 % 0.0 mm
02:54 12.1 °C -2.2 °C 1021.9 hPa NNE 11.1 km/h 11.1 km/h 37 % 0.0 mm
02:59 11.9 °C -2.7 °C 1021.9 hPa North 35.2 km/h 35.2 km/h 36 % 0.0 mm
03:04 11.8 °C -2.8 °C 1021.6 hPa NE 33.8 km/h 33.8 km/h 36 % 0.0 mm
03:09 11.8 °C -2.8 °C 1021.6 hPa North 32.2 km/h 32.2 km/h 36 % 0.0 mm
03:19 11.8 °C -2.8 °C 1021.6 hPa WNW 38.9 km/h 38.9 km/h 36 % 0.0 mm
03:24 11.8 °C -2.4 °C 1021.9 hPa NE 29.6 km/h 29.6 km/h 37 % 0.0 mm
03:29 11.8 °C -2.8 °C 1021.9 hPa NNE 24.1 km/h 24.1 km/h 36 % 0.0 mm
03:34 12.1 °C -3.8 °C 1021.9 hPa North 25.9 km/h 25.9 km/h 33 % 0.0 mm
03:49 11.7 °C -2.9 °C 1021.9 hPa West 25.9 km/h 25.9 km/h 36 % 0.0 mm
03:54 11.7 °C -3.3 °C 1021.9 hPa North 37.0 km/h 37.0 km/h 35 % 0.0 mm
03:59 11.7 °C -2.9 °C 1021.9 hPa North 24.1 km/h 24.1 km/h 36 % 0.0 mm
04:05 11.7 °C -2.9 °C 1021.9 hPa North 16.1 km/h 16.1 km/h 36 % 0.0 mm
04:10 11.6 °C -3.3 °C 1021.9 hPa North 24.1 km/h 24.1 km/h 35 % 0.0 mm
04:15 11.7 °C -3.3 °C 1021.9 hPa NNE 13.0 km/h 13.0 km/h 35 % 0.0 mm
04:20 11.9 °C -4.3 °C 1021.9 hPa NNE 27.8 km/h 27.8 km/h 32 % 0.0 mm
04:30 12.2 °C -4.1 °C 1021.9 hPa NNE 35.2 km/h 35.2 km/h 32 % 0.0 mm
04:35 12.3 °C -4.4 °C 1021.9 hPa NNE 14.8 km/h 14.8 km/h 31 % 0.0 mm
04:40 12.4 °C -4.3 °C 1021.9 hPa NE 7.4 km/h 7.4 km/h 31 % 0.0 mm
04:45 12.3 °C -4.4 °C 1022.2 hPa NNW 24.1 km/h 24.1 km/h 31 % 0.0 mm
04:50 12.2 °C -4.9 °C 1021.9 hPa NNE 17.7 km/h 17.7 km/h 30 % 0.0 mm
04:55 12.1 °C -4.9 °C 1022.2 hPa NNE 18.5 km/h 18.5 km/h 30 % 0.0 mm
05:00 12.1 °C -4.9 °C 1022.2 hPa NNE 22.2 km/h 22.2 km/h 30 % 0.0 mm
05:10 11.9 °C -4.3 °C 1022.2 hPa North 27.8 km/h 27.8 km/h 32 % 0.0 mm
05:15 11.8 °C -4.4 °C 1022.2 hPa North 18.5 km/h 18.5 km/h 32 % 0.0 mm
05:20 11.8 °C -4.0 °C 1022.2 hPa NNE 31.5 km/h 31.5 km/h 33 % 0.0 mm
05:25 11.7 °C -4.1 °C 1021.9 hPa NNE 24.1 km/h 24.1 km/h 33 % 0.0 mm
05:30 11.6 °C -3.8 °C 1021.9 hPa NNE 27.8 km/h 27.8 km/h 34 % 0.0 mm
05:35 11.4 °C -3.9 °C 1021.9 hPa NNE 22.2 km/h 22.2 km/h 34 % 0.0 mm
05:40 11.3 °C -3.6 °C 1021.9 hPa NNW 29.6 km/h 29.6 km/h 35 % 0.0 mm
06:00 11.2 °C -3.7 °C 1021.9 hPa NNE 43.4 km/h 43.4 km/h 35 % 0.0 mm
06:05 11.3 °C -4.0 °C 1022.2 hPa North 42.6 km/h 42.6 km/h 34 % 0.0 mm
06:10 11.5 °C -3.8 °C 1022.2 hPa North 8.0 km/h 46.7 km/h 34 % 0.0 mm
06:15 11.3 °C -3.7 °C 1022.2 hPa NNE 42.6 km/h 42.6 km/h 35 % 0.0 mm
06:25 11.2 °C -3.7 °C 1022.2 hPa NNW 35.2 km/h 35.2 km/h 35 % 0.0 mm
06:30 11.2 °C -4.1 °C 1022.2 hPa NE 25.9 km/h 25.9 km/h 34 % 0.0 mm
06:35 11.3 °C -4.4 °C 1022.2 hPa North 8.0 km/h 37.0 km/h 33 % 0.0 mm
06:40 11.1 °C -3.4 °C 1022.2 hPa North 20.9 km/h 43.4 km/h 36 % 0.0 mm
06:45 10.9 °C -3.2 °C 1022.2 hPa NE 42.6 km/h 42.6 km/h 37 % 0.0 mm
06:50 10.8 °C -3.3 °C 1022.6 hPa NNE 25.7 km/h 25.7 km/h 37 % 0.0 mm
06:55 10.9 °C -3.6 °C 1022.6 hPa NNE 32.2 km/h 32.2 km/h 36 % 0.0 mm
07:05 10.8 °C -3.7 °C 1022.6 hPa NNE 38.9 km/h 38.9 km/h 36 % 0.0 mm
07:10 10.8 °C -3.7 °C 1022.6 hPa NNW 38.9 km/h 38.9 km/h 36 % 0.0 mm
07:15 10.8 °C -4.4 °C 1022.6 hPa NNW 38.9 km/h 38.9 km/h 34 % 0.0 mm
07:20 10.7 °C -3.8 °C 1022.6 hPa NW 24.1 km/h 24.1 km/h 36 % 0.0 mm
07:25 10.7 °C -3.8 °C 1022.6 hPa North 18.5 km/h 18.5 km/h 36 % 0.0 mm
07:35 10.6 °C -3.9 °C 1022.9 hPa NNE 37.0 km/h 37.0 km/h 36 % 0.0 mm
07:40 10.5 °C -3.6 °C 1022.9 hPa NNW 29.0 km/h 29.0 km/h 37 % 0.0 mm
07:45 10.4 °C -4.0 °C 1022.9 hPa North 22.2 km/h 22.2 km/h 36 % 0.0 mm
07:50 10.7 °C -4.2 °C 1023.2 hPa SW 5.6 km/h 5.6 km/h 35 % 0.0 mm
07:55 10.7 °C -3.8 °C 1022.9 hPa North 27.8 km/h 27.8 km/h 36 % 0.0 mm
07:56 10.7 °C -3.8 °C 1022.9 hPa NNE 27.8 km/h 27.8 km/h 36 % 0.0 mm
08:01 10.7 °C -4.2 °C 1023.2 hPa NNW 25.9 km/h 25.9 km/h 35 % 0.0 mm
08:11 10.4 °C -4.4 °C 1023.2 hPa North 48.1 km/h 48.1 km/h 35 % 0.0 mm
08:16 10.3 °C -3.4 °C 1023.6 hPa North 42.6 km/h 42.6 km/h 38 % 0.0 mm
08:21 10.1 °C -3.3 °C 1023.6 hPa NNW 25.7 km/h 25.7 km/h 39 % 0.0 mm
08:26 10.0 °C -3.3 °C 1023.2 hPa NNW 18.5 km/h 18.5 km/h 39 % 0.0 mm
08:31 10.0 °C -2.7 °C 1023.6 hPa North 20.9 km/h 20.9 km/h 41 % 0.0 mm
08:36 9.9 °C -3.1 °C 1023.6 hPa North 35.4 km/h 35.4 km/h 40 % 0.0 mm
08:41 9.9 °C -3.4 °C 1023.6 hPa NNW 29.0 km/h 29.0 km/h 39 % 0.0 mm
08:46 9.9 °C -3.4 °C 1023.6 hPa NE 22.2 km/h 22.2 km/h 39 % 0.0 mm
08:51 9.9 °C -3.4 °C 1023.6 hPa North 18.5 km/h 18.5 km/h 39 % 0.0 mm
08:56 9.9 °C -3.7 °C 1023.9 hPa North 37.0 km/h 37.0 km/h 38 % 0.0 mm
09:01 9.9 °C -3.7 °C 1023.6 hPa NNE 32.2 km/h 32.2 km/h 38 % 0.0 mm
09:06 10.1 °C -4.0 °C 1023.6 hPa North 31.5 km/h 31.5 km/h 37 % 0.0 mm
09:11 10.1 °C -3.9 °C 1023.9 hPa North 37.0 km/h 37.0 km/h 37 % 0.0 mm
09:16 10.1 °C -4.3 °C 1023.9 hPa NNE 44.4 km/h 44.4 km/h 36 % 0.0 mm
09:21 10.2 °C -4.6 °C 1024.3 hPa North 44.4 km/h 44.4 km/h 35 % 0.0 mm
09:26 10.2 °C -5.0 °C 1023.9 hPa NE 35.2 km/h 35.2 km/h 34 % 0.0 mm
09:31 10.3 °C -4.9 °C 1024.3 hPa NE 44.4 km/h 44.4 km/h 34 % 0.0 mm
09:36 10.2 °C -5.0 °C 1023.9 hPa NE 38.9 km/h 38.9 km/h 34 % 0.0 mm
09:41 10.3 °C -5.7 °C 1024.3 hPa NE 44.4 km/h 44.4 km/h 32 % 0.0 mm
09:46 10.3 °C -6.1 °C 1023.9 hPa NNE 46.3 km/h 46.3 km/h 31 % 0.0 mm
09:56 10.8 °C -5.3 °C 1024.3 hPa NE 33.3 km/h 33.3 km/h 32 % 0.0 mm
10:11 10.7 °C -5.8 °C 1024.3 hPa North 40.7 km/h 40.7 km/h 31 % 0.0 mm
10:16 10.7 °C -6.2 °C 1024.3 hPa NNE 37.0 km/h 37.0 km/h 30 % 0.0 mm
10:36 11.3 °C -7.1 °C 1024.9 hPa NW 22.2 km/h 22.2 km/h 27 % 0.0 mm
10:41 11.4 °C -6.9 °C 1024.9 hPa NNE 14.5 km/h 14.5 km/h 27 % 0.0 mm
10:46 11.7 °C -2.6 °C 1025.3 hPa ESE 22.2 km/h 22.2 km/h 37 % 0.0 mm
10:51 11.7 °C -6.3 °C 1025.3 hPa ESE 3.2 km/h 3.2 km/h 28 % 0.0 mm
10:56 11.8 °C -6.7 °C 1025.3 hPa NW 16.7 km/h 16.7 km/h 27 % 0.0 mm
11:01 11.8 °C -5.7 °C 1025.3 hPa WNW 5.6 km/h 5.6 km/h 29 % 0.0 mm
11:06 11.8 °C -5.7 °C 1025.3 hPa ESE 7.4 km/h 7.4 km/h 29 % 0.0 mm
11:11 11.9 °C -5.6 °C 1025.3 hPa South 5.6 km/h 5.6 km/h 29 % 0.0 mm
11:16 12.2 °C -6.3 °C 1025.3 hPa South 1.9 km/h   27 % 0.0 mm
11:21 12.3 °C -6.2 °C 1025.3 hPa North 7.4 km/h 7.4 km/h 27 % 0.0 mm
11:26 12.4 °C -5.6 °C 1025.3 hPa Calm     28 % 0.0 mm
11:32 12.4 °C -5.6 °C 1025.3 hPa NNE 5.6 km/h 5.6 km/h 28 % 0.0 mm
11:37 12.6 °C -6.4 °C 1025.3 hPa Calm     26 % 0.0 mm
11:42 12.9 °C -5.7 °C 1025.3 hPa NW 5.6 km/h 5.6 km/h 27 % 0.0 mm
11:47 12.8 °C -5.3 °C 1025.3 hPa North 18.5 km/h 18.5 km/h 28 % 0.0 mm
11:52 12.6 °C -5.0 °C 1025.3 hPa NNE 11.1 km/h 11.1 km/h 29 % 0.0 mm
11:57 12.7 °C -5.8 °C 1025.3 hPa NNW 16.7 km/h 16.7 km/h 27 % 0.0 mm
12:02 12.9 °C -5.2 °C 1025.3 hPa North 14.8 km/h 14.8 km/h 28 % 0.0 mm
12:07 13.1 °C -5.1 °C 1025.3 hPa North 11.1 km/h 11.1 km/h 28 % 0.0 mm
12:12 13.2 °C -4.9 °C 1025.3 hPa NW 13.0 km/h 13.0 km/h 28 % 0.0 mm
12:17 13.3 °C -4.3 °C 1025.3 hPa NNW 11.3 km/h 11.3 km/h 29 % 0.0 mm
12:22 13.5 °C -3.3 °C 1025.3 hPa North 7.4 km/h 7.4 km/h 31 % 0.0 mm
12:27 13.6 °C -2.0 °C 1025.3 hPa ESE 13.0 km/h 13.0 km/h 34 % 0.0 mm
12:32 13.6 °C -1.3 °C 1025.3 hPa East 20.4 km/h 20.4 km/h 36 % 0.0 mm
12:37 13.7 °C -0.4 °C 1025.3 hPa ENE 22.5 km/h 22.5 km/h 38 % 0.0 mm
12:42 13.7 °C -0.3 °C 1024.9 hPa ENE 24.1 km/h 24.1 km/h 38 % 0.0 mm
12:47 13.8 °C -0.7 °C 1024.9 hPa ENE 16.7 km/h 16.7 km/h 37 % 0.0 mm
12:52 13.8 °C -1.1 °C 1024.9 hPa East 27.8 km/h 27.8 km/h 36 % 0.0 mm
12:57 13.8 °C -0.3 °C 1025.3 hPa East 25.9 km/h 25.9 km/h 38 % 0.0 mm
13:02 13.8 °C -0.7 °C 1025.3 hPa ENE 18.5 km/h 18.5 km/h 37 % 0.0 mm
13:07 13.8 °C 0.4 °C 1025.3 hPa ENE 20.4 km/h 20.4 km/h 40 % 0.0 mm
13:12 13.8 °C 1.1 °C 1025.3 hPa East 16.7 km/h 16.7 km/h 42 % 0.0 mm
13:17 13.9 °C 0.8 °C 1025.3 hPa East 25.9 km/h 25.9 km/h 41 % 0.0 mm
13:18 13.9 °C 0.8 °C 1025.3 hPa ENE 25.9 km/h 25.9 km/h 41 % 0.0 mm
13:23 13.9 °C 1.2 °C 1025.3 hPa East 16.1 km/h 16.1 km/h 42 % 0.0 mm
13:28 13.8 °C 0.8 °C 1025.3 hPa East 16.7 km/h 16.7 km/h 41 % 0.0 mm
13:38 13.9 °C 1.9 °C 1025.3 hPa ESE 24.1 km/h 24.1 km/h 44 % 0.0 mm
13:43 13.9 °C 3.9 °C 1025.3 hPa East 33.3 km/h 33.3 km/h 51 % 0.0 mm
13:48 13.8 °C 3.8 °C 1025.3 hPa East 29.6 km/h 29.6 km/h 51 % 0.0 mm
13:53 13.8 °C 4.9 °C 1025.3 hPa East 31.5 km/h 31.5 km/h 55 % 0.0 mm
13:58 13.7 °C 5.1 °C 1025.3 hPa ESE 25.9 km/h 25.9 km/h 56 % 0.0 mm
14:03 13.8 °C 4.9 °C 1024.9 hPa East 33.3 km/h 33.3 km/h 55 % 0.0 mm
14:08 13.7 °C 5.1 °C 1025.3 hPa ESE 27.8 km/h 27.8 km/h 56 % 0.0 mm
14:13 13.7 °C 5.3 °C 1024.9 hPa East 38.9 km/h 38.9 km/h 57 % 0.0 mm
14:18 13.6 °C 5.7 °C 1025.3 hPa East 37.0 km/h 37.0 km/h 59 % 0.0 mm
14:23 13.6 °C 4.9 °C 1025.3 hPa East 31.5 km/h 31.5 km/h 56 % 0.0 mm
14:28 13.7 °C 5.3 °C 1024.9 hPa East 33.8 km/h 33.8 km/h 57 % 0.0 mm
14:33 13.7 °C 6.1 °C 1024.9 hPa East 35.4 km/h 35.4 km/h 60 % 0.0 mm
14:38 13.7 °C 6.1 °C 1025.3 hPa ENE 31.5 km/h 31.5 km/h 60 % 0.0 mm
14:43 13.7 °C 6.1 °C 1024.9 hPa ENE 35.4 km/h 35.4 km/h 60 % 0.0 mm
14:49 13.6 °C 6.0 °C 1024.9 hPa ENE 37.0 km/h 37.0 km/h 60 % 0.0 mm
14:54 13.7 °C 6.7 °C 1025.3 hPa East 37.0 km/h 37.0 km/h 63 % 0.0 mm
14:59 13.6 °C 6.2 °C 1025.3 hPa East 35.2 km/h 35.2 km/h 61 % 0.0 mm
15:04 13.7 °C 6.5 °C 1025.3 hPa East 31.5 km/h 31.5 km/h 62 % 0.0 mm
15:09 13.7 °C 6.5 °C 1025.3 hPa East 31.5 km/h 31.5 km/h 62 % 0.0 mm
15:14 13.7 °C 6.1 °C 1025.3 hPa ENE 20.4 km/h 20.4 km/h 60 % 0.0 mm
15:19 13.7 °C 6.6 °C 1025.3 hPa East 25.9 km/h 25.9 km/h 62 % 0.0 mm
15:24 13.7 °C 6.8 °C 1025.3 hPa ENE 20.4 km/h 20.4 km/h 63 % 0.0 mm
15:29 13.8 °C 6.6 °C 1025.3 hPa East 22.2 km/h 22.2 km/h 62 % 0.0 mm
15:34 13.8 °C 7.4 °C 1025.3 hPa East 29.6 km/h 29.6 km/h 65 % 0.0 mm
15:39 13.8 °C 7.6 °C 1025.3 hPa ENE 29.6 km/h 29.6 km/h 66 % 0.0 mm
15:44 13.8 °C 7.6 °C 1025.3 hPa ENE 25.9 km/h 25.9 km/h 66 % 0.0 mm
15:49 13.8 °C 7.4 °C 1025.3 hPa ENE 22.2 km/h 22.2 km/h 65 % 0.0 mm
15:54 13.8 °C 5.7 °C 1025.3 hPa ENE 22.2 km/h 22.2 km/h 58 % 0.0 mm
15:59 13.9 °C 6.2 °C 1025.3 hPa ENE 24.1 km/h 24.1 km/h 60 % 0.0 mm
16:04 13.8 °C 6.9 °C 1025.3 hPa ENE 25.9 km/h 25.9 km/h 63 % 0.0 mm
16:09 13.9 °C 7.0 °C 1025.3 hPa ENE 20.9 km/h 20.9 km/h 63 % 0.0 mm
16:14 13.8 °C 6.9 °C 1025.3 hPa East 22.2 km/h 22.2 km/h 63 % 0.0 mm
16:19 13.8 °C 6.4 °C 1025.3 hPa ENE 19.3 km/h 19.3 km/h 61 % 0.0 mm
16:24 13.8 °C 6.7 °C 1025.6 hPa ENE 20.4 km/h 20.4 km/h 62 % 0.0 mm
16:29 13.9 °C 7.0 °C 1025.6 hPa ENE 18.5 km/h 18.5 km/h 63 % 0.0 mm
16:34 14.0 °C 7.9 °C 1025.6 hPa ENE 20.9 km/h 20.9 km/h 67 % 0.0 mm
16:39 13.9 °C 7.7 °C 1025.6 hPa ESE 25.9 km/h 25.9 km/h 66 % 0.0 mm
16:44 14.0 °C 8.2 °C 1025.6 hPa ESE 27.8 km/h 27.8 km/h 68 % 0.0 mm
16:49 14.0 °C 8.2 °C 1025.6 hPa East 29.6 km/h 29.6 km/h 68 % 0.0 mm
16:54 14.0 °C 8.2 °C 1025.6 hPa East 25.9 km/h 25.9 km/h 68 % 0.0 mm
16:59 14.1 °C 8.4 °C 1026.0 hPa East 27.8 km/h 27.8 km/h 69 % 0.0 mm
17:04 14.1 °C 8.5 °C 1026.0 hPa ESE 25.7 km/h 25.7 km/h 69 % 0.0 mm
17:09 14.1 °C 8.4 °C 1026.0 hPa ESE 27.8 km/h 27.8 km/h 69 % 0.0 mm
17:14 14.0 °C 8.6 °C 1026.0 hPa East 22.2 km/h 22.2 km/h 70 % 0.0 mm
17:19 13.9 °C 8.3 °C 1026.0 hPa ESE 25.9 km/h 25.9 km/h 69 % 0.0 mm
17:24 14.1 °C 8.4 °C 1026.0 hPa East 27.8 km/h 27.8 km/h 69 % 0.0 mm
17:29 14.0 °C 8.2 °C 1026.0 hPa East 24.1 km/h 24.1 km/h 68 % 0.0 mm
17:34 14.0 °C 8.6 °C 1026.0 hPa ENE 24.1 km/h 24.1 km/h 70 % 0.0 mm
17:39 13.9 °C 8.3 °C 1026.0 hPa ENE 25.9 km/h 25.9 km/h 69 % 0.0 mm
17:44 13.9 °C 8.3 °C 1026.0 hPa ENE 27.8 km/h 27.8 km/h 69 % 0.0 mm
17:49 13.9 °C 8.3 °C 1026.3 hPa East 25.9 km/h 25.9 km/h 69 % 0.0 mm
17:54 13.9 °C 8.1 °C 1026.3 hPa ESE 27.8 km/h 27.8 km/h 68 % 0.0 mm
17:59 14.1 °C 8.7 °C 1026.3 hPa ESE 24.1 km/h 24.1 km/h 70 % 0.0 mm
18:04 13.9 °C 8.3 °C 1026.3 hPa East 27.8 km/h 27.8 km/h 69 % 0.0 mm
18:09 13.9 °C 8.1 °C 1026.3 hPa East 27.8 km/h 27.8 km/h 68 % 0.0 mm
18:15 14.0 °C 8.6 °C 1026.3 hPa East 25.9 km/h 25.9 km/h 70 % 0.0 mm
18:19 13.9 °C 8.1 °C 1026.6 hPa East 22.2 km/h 22.2 km/h 68 % 0.0 mm
18:25 13.8 °C 8.0 °C 1026.6 hPa ENE 22.2 km/h 22.2 km/h 68 % 0.0 mm
18:30 13.8 °C 8.2 °C 1026.6 hPa East 24.1 km/h 24.1 km/h 69 % 0.0 mm
18:35 13.7 °C 7.9 °C 1026.6 hPa ENE 20.4 km/h 20.4 km/h 68 % 0.0 mm
18:40 13.7 °C 8.1 °C 1027.0 hPa ENE 16.7 km/h 16.7 km/h 69 % 0.0 mm
18:45 13.7 °C 8.1 °C 1027.0 hPa ENE 18.5 km/h 18.5 km/h 69 % 0.0 mm
18:50 13.7 °C 8.1 °C 1027.0 hPa NE 19.3 km/h 19.3 km/h 69 % 0.0 mm
18:55 13.7 °C 8.3 °C 1027.0 hPa ENE 22.5 km/h 22.5 km/h 70 % 0.0 mm
19:00 13.7 °C 8.1 °C 1027.0 hPa ENE 20.4 km/h 20.4 km/h 69 % 0.0 mm
19:05 13.7 °C 8.1 °C 1027.0 hPa ENE 20.4 km/h 20.4 km/h 69 % 0.0 mm
19:10 13.7 °C 8.1 °C 1027.0 hPa ENE 18.5 km/h 18.5 km/h 69 % 0.0 mm
19:15 13.6 °C 8.2 °C 1027.3 hPa ENE 18.5 km/h 18.5 km/h 70 % 0.0 mm
19:20 13.5 °C 8.1 °C 1027.3 hPa NE 14.8 km/h 14.8 km/h 70 % 0.0 mm
19:25 13.3 °C 7.7 °C 1027.3 hPa NE 11.3 km/h 14.5 km/h 69 % 0.0 mm
19:30 13.2 °C 7.8 °C 1027.3 hPa NE 7.4 km/h 7.4 km/h 70 % 0.0 mm
19:35 13.1 °C 7.7 °C 1027.3 hPa NE 8.0 km/h 11.3 km/h 70 % 0.0 mm
19:40 12.9 °C 7.6 °C 1027.3 hPa NE 8.0 km/h 8.0 km/h 70 % 0.0 mm
19:45 12.8 °C 7.4 °C 1027.7 hPa NE 8.0 km/h 9.7 km/h 70 % 0.0 mm
19:50 12.7 °C 7.4 °C 1027.7 hPa NE 13.0 km/h 13.0 km/h 70 % 0.0 mm
19:55 12.8 °C 7.4 °C 1027.7 hPa NE 8.0 km/h 9.7 km/h 70 % 0.0 mm
20:00 12.7 °C 7.2 °C 1027.7 hPa NE 7.4 km/h 7.4 km/h 69 % 0.0 mm
20:05 12.7 °C 7.1 °C 1027.7 hPa NE 8.0 km/h 11.3 km/h 69 % 0.0 mm
20:10 12.6 °C 7.1 °C 1027.7 hPa NE 9.3 km/h 9.3 km/h 69 % 0.0 mm
20:15 12.5 °C 6.7 °C 1027.7 hPa NE 4.8 km/h 9.7 km/h 68 % 0.0 mm
20:20 12.3 °C 6.6 °C 1028.0 hPa NNE 3.2 km/h 6.4 km/h 68 % 0.0 mm
20:25 11.9 °C 6.2 °C 1027.7 hPa North 7.4 km/h 7.4 km/h 68 % 0.0 mm
20:26 11.9 °C 6.2 °C 1028.0 hPa North 6.4 km/h 6.4 km/h 68 % 0.0 mm
20:31 11.6 °C 6.1 °C 1028.0 hPa North 7.4 km/h 7.4 km/h 69 % 0.0 mm
20:36 11.4 °C 5.9 °C 1028.0 hPa North 7.4 km/h 7.4 km/h 69 % 0.0 mm
20:41 11.2 °C 5.9 °C 1028.0 hPa North 9.7 km/h 9.7 km/h 70 % 0.0 mm
20:46 11.1 °C 6.0 °C 1028.0 hPa North 14.8 km/h 14.8 km/h 71 % 0.0 mm
20:51 11.0 °C 5.9 °C 1028.0 hPa NNE 13.0 km/h 13.0 km/h 71 % 0.0 mm
20:56 10.9 °C 5.8 °C 1028.0 hPa NNE 11.1 km/h 11.1 km/h 71 % 0.0 mm
21:01 10.8 °C 5.7 °C 1028.0 hPa North 9.7 km/h 9.7 km/h 71 % 0.0 mm
21:06 10.7 °C 5.9 °C 1028.0 hPa North 11.3 km/h 11.3 km/h 72 % 0.0 mm
21:11 10.7 °C 5.8 °C 1028.3 hPa North 11.3 km/h 11.3 km/h 72 % 0.0 mm
21:16 10.6 °C 5.8 °C 1028.3 hPa North 11.3 km/h 11.3 km/h 72 % 0.0 mm
21:21 10.6 °C 5.7 °C 1028.3 hPa NNE 14.8 km/h 14.8 km/h 72 % 0.0 mm
21:26 10.6 °C 5.7 °C 1028.3 hPa North 14.5 km/h 14.5 km/h 72 % 0.0 mm
21:31 10.6 °C 5.7 °C 1028.3 hPa NNE 16.7 km/h 16.7 km/h 72 % 0.0 mm
21:36 10.5 °C 5.7 °C 1028.3 hPa NNE 11.1 km/h 11.1 km/h 72 % 0.0 mm
21:41 10.4 °C 5.6 °C 1028.3 hPa North 16.7 km/h 16.7 km/h 72 % 0.0 mm
21:46 10.4 °C 5.6 °C 1028.3 hPa North 16.7 km/h 16.7 km/h 72 % 0.0 mm
21:51 10.4 °C 5.8 °C 1028.3 hPa North 14.8 km/h 14.8 km/h 73 % 0.0 mm
21:56 10.3 °C 5.7 °C 1028.3 hPa North 16.7 km/h 16.7 km/h 73 % 0.0 mm
22:01 10.3 °C 5.7 °C 1028.3 hPa NNW 18.5 km/h 18.5 km/h 73 % 0.0 mm
22:06 10.3 °C 5.7 °C 1028.3 hPa NNE 13.0 km/h 13.0 km/h 73 % 0.0 mm
22:11 10.2 °C 5.6 °C 1028.7 hPa North 18.5 km/h 18.5 km/h 73 % 0.0 mm
22:16 10.2 °C 5.6 °C 1028.7 hPa North 18.5 km/h 18.5 km/h 73 % 0.0 mm
22:17 10.2 °C 5.6 °C 1028.7 hPa North 18.5 km/h 18.5 km/h 73 % 0.0 mm
22:22 10.2 °C 5.6 °C 1028.7 hPa North 18.5 km/h 18.5 km/h 73 % 0.0 mm
22:27 10.1 °C 5.5 °C 1028.7 hPa NNE 16.7 km/h 16.7 km/h 73 % 0.0 mm
22:32 10.2 °C 5.6 °C 1028.7 hPa NNE 18.5 km/h 18.5 km/h 73 % 0.0 mm
22:37 10.1 °C 5.5 °C 1028.7 hPa North 18.5 km/h 18.5 km/h 73 % 0.0 mm
22:42 10.1 °C 5.4 °C 1028.7 hPa North 18.5 km/h 18.5 km/h 73 % 0.0 mm
22:47 10.0 °C 5.4 °C 1028.7 hPa NNE 16.7 km/h 16.7 km/h 73 % 0.0 mm
22:52 10.0 °C 5.4 °C 1028.7 hPa North 18.5 km/h 18.5 km/h 73 % 0.0 mm
22:57 10.0 °C 5.4 °C 1028.7 hPa NNE 18.5 km/h 18.5 km/h 73 % 0.0 mm
23:02 9.9 °C 5.3 °C 1028.7 hPa NNE 18.5 km/h 18.5 km/h 73 % 0.0 mm
23:07 9.9 °C 5.3 °C 1029.0 hPa NNE 17.7 km/h 17.7 km/h 73 % 0.0 mm
23:12 9.8 °C 5.2 °C 1029.0 hPa North 16.7 km/h 16.7 km/h 73 % 0.0 mm
23:17 9.8 °C 5.2 °C 1029.0 hPa NNE 18.5 km/h 18.5 km/h 73 % 0.0 mm
23:22 9.8 °C 5.2 °C 1029.0 hPa North 16.7 km/h 16.7 km/h 73 % 0.0 mm
23:27 9.7 °C 5.1 °C 1029.0 hPa North 16.7 km/h 16.7 km/h 73 % 0.0 mm
23:32 9.6 °C 4.9 °C 1029.0 hPa North 17.7 km/h 17.7 km/h 73 % 0.0 mm
23:37 9.5 °C 5.1 °C 1029.0 hPa North 18.5 km/h 18.5 km/h 74 % 0.0 mm
23:42 9.5 °C 5.1 °C 1029.0 hPa North 18.5 km/h 18.5 km/h 74 % 0.0 mm
23:47 9.5 °C 5.1 °C 1029.0 hPa North 22.2 km/h 22.2 km/h 74 % 0.0 mm
23:52 9.6 °C 5.2 °C 1029.0 hPa NNE 20.4 km/h 20.4 km/h 74 % 0.0 mm
23:57 9.6 °C 5.2 °C 1029.3 hPa North 17.7 km/h 17.7 km/h 74 % 0.0 mm
Puerto Banus, Marbella
Elogios de Weather Underground - 1.75 mb

Guión original por  Jim McMurry - jmcmurry@mwt.net Adaptado para la plantilla por  Wim van der Kuil - Leuven-Template.eu

Usted encontrará nuestra información del tiempo también en:

Weather Underground

Iberian Peninsula Weather Network